createdAt,value
2023-11-27T00:00:33.910Z,74.48
2023-11-27T00:03:06.165Z,74.07
2023-11-27T00:05:32.465Z,74.13
2023-11-27T00:07:58.623Z,74.00
2023-11-27T00:10:24.849Z,73.48
2023-11-27T00:12:51.307Z,74.71
2023-11-27T00:15:17.468Z,74.76
2023-11-27T00:17:43.956Z,74.30
2023-11-27T00:20:10.253Z,72.90
2023-11-27T00:22:36.598Z,74.55
2023-11-27T00:25:02.936Z,74.53
2023-11-27T00:27:29.173Z,74.72
2023-11-27T00:29:55.372Z,75.09
2023-11-27T00:32:21.586Z,73.97
2023-11-27T00:34:47.802Z,75.01
2023-11-27T00:37:14.030Z,73.73
2023-11-27T00:39:43.072Z,73.61
2023-11-27T00:42:09.844Z,72.97
2023-11-27T00:44:36.783Z,72.78
2023-11-27T00:47:03.918Z,72.32
2023-11-27T00:49:30.114Z,73.78
2023-11-27T00:51:56.293Z,72.78
2023-11-27T00:54:22.641Z,72.84
2023-11-27T00:56:48.801Z,73.53
2023-11-27T00:59:14.954Z,73.14
2023-11-27T01:01:41.101Z,74.50
2023-11-27T01:04:07.441Z,72.00
2023-11-27T01:06:33.760Z,73.41
2023-11-27T01:08:59.974Z,72.97
2023-11-27T01:11:26.123Z,73.50
2023-11-27T01:13:52.292Z,73.25
2023-11-27T01:16:18.611Z,72.95
2023-11-27T01:18:44.838Z,73.40
2023-11-27T01:21:11.008Z,73.13
2023-11-27T01:23:37.213Z,73.76
2023-11-27T01:26:03.482Z,73.41
2023-11-27T01:28:29.715Z,72.88
2023-11-27T01:30:55.894Z,72.65
2023-11-27T01:33:22.135Z,73.89
2023-11-27T01:35:48.382Z,73.79
2023-11-27T01:38:14.535Z,74.17
2023-11-27T01:40:53.021Z,74.44
2023-11-27T01:43:19.324Z,73.51
2023-11-27T01:45:45.499Z,73.51
2023-11-27T01:48:11.745Z,74.41
2023-11-27T01:50:37.946Z,73.72
2023-11-27T01:53:04.352Z,74.19
2023-11-27T01:55:30.505Z,74.19
2023-11-27T01:57:56.676Z,74.77
2023-11-27T02:00:22.855Z,73.47
2023-11-27T02:02:49.297Z,74.55
2023-11-27T02:05:15.504Z,74.44
2023-11-27T02:07:41.691Z,74.24
2023-11-27T02:10:08.052Z,73.75
2023-11-27T02:12:34.270Z,75.34
2023-11-27T02:15:00.445Z,74.72
2023-11-27T02:17:26.596Z,74.70
2023-11-27T02:19:52.805Z,74.77
2023-11-27T02:22:19.004Z,74.75
2023-11-27T02:24:45.365Z,75.03
2023-11-27T02:27:11.538Z,74.17
2023-11-27T02:29:37.705Z,73.23
2023-11-27T02:32:03.989Z,74.14
2023-11-27T02:34:30.169Z,74.17
2023-11-27T02:36:56.338Z,73.79
2023-11-27T02:39:22.743Z,73.42
2023-11-27T02:41:48.975Z,73.09
2023-11-27T02:44:15.182Z,73.11
2023-11-27T02:46:41.417Z,73.98
2023-11-27T02:49:07.917Z,73.78
2023-11-27T02:51:34.089Z,73.64
2023-11-27T02:54:00.313Z,74.06
2023-11-27T02:56:26.479Z,75.18
2023-11-27T02:58:52.888Z,73.51
2023-11-27T03:01:19.129Z,74.06
2023-11-27T03:03:45.415Z,73.98
2023-11-27T03:06:11.789Z,74.30
2023-11-27T03:08:38.212Z,74.33
2023-11-27T03:11:04.468Z,73.55
2023-11-27T03:13:30.640Z,74.36
2023-11-27T03:15:56.815Z,74.10
2023-11-27T03:18:23.045Z,74.00
2023-11-27T03:20:49.320Z,74.55
2023-11-27T03:23:15.563Z,73.95
2023-11-27T03:25:41.792Z,75.10
2023-11-27T03:28:07.979Z,74.37
2023-11-27T03:30:34.144Z,75.09
2023-11-27T03:33:00.591Z,74.52
2023-11-27T03:35:26.836Z,74.40
2023-11-27T03:37:53.016Z,73.04
2023-11-27T03:40:19.326Z,73.82
2023-11-27T03:42:45.544Z,73.49
2023-11-27T03:45:11.805Z,74.40
2023-11-27T03:47:38.003Z,76.49
2023-11-27T03:50:04.220Z,74.33
2023-11-27T03:52:30.364Z,74.16
2023-11-27T03:54:56.562Z,74.72
2023-11-27T03:57:22.756Z,73.76
2023-11-27T03:59:49.206Z,74.02
2023-11-27T04:02:15.740Z,73.53
2023-11-27T04:04:42.014Z,74.07
2023-11-27T04:07:08.353Z,74.13
2023-11-27T04:09:34.659Z,74.24
2023-11-27T04:12:00.854Z,74.60
2023-11-27T04:14:27.021Z,73.78
2023-11-27T04:16:53.270Z,74.35
2023-11-27T04:19:19.648Z,73.54
2023-11-27T04:21:45.852Z,73.74
2023-11-27T04:24:12.192Z,74.58
2023-11-27T04:26:38.390Z,74.44
2023-11-27T04:29:04.577Z,74.73
2023-11-27T04:31:30.782Z,74.34
2023-11-27T04:33:57.012Z,74.32
2023-11-27T04:36:23.215Z,75.38
2023-11-27T04:38:49.469Z,75.20
2023-11-27T04:41:15.669Z,74.76
2023-11-27T04:43:41.821Z,75.25
2023-11-27T04:46:08.154Z,75.79
2023-11-27T04:48:34.377Z,75.53
2023-11-27T04:51:00.522Z,75.96
2023-11-27T04:53:26.694Z,74.82
2023-11-27T04:55:52.995Z,74.65
2023-11-27T04:58:19.187Z,75.67
2023-11-27T05:00:45.348Z,75.65
2023-11-27T05:03:11.524Z,75.45
2023-11-27T05:05:37.697Z,74.83
2023-11-27T05:08:03.862Z,75.79
2023-11-27T05:10:30.282Z,76.07
2023-11-27T05:12:56.659Z,75.52
2023-11-27T05:15:22.941Z,76.00
2023-11-27T05:17:49.200Z,75.89
2023-11-27T05:20:15.409Z,75.58
2023-11-27T05:22:41.569Z,75.43
2023-11-27T05:25:07.939Z,75.48
2023-11-27T05:27:34.140Z,75.04
2023-11-27T05:30:00.355Z,75.84
2023-11-27T05:32:26.552Z,75.69
2023-11-27T05:34:52.758Z,75.84
2023-11-27T05:37:19.052Z,75.71
2023-11-27T05:39:47.565Z,75.87
2023-11-27T05:42:13.733Z,76.29
2023-11-27T05:44:39.904Z,75.97
2023-11-27T05:47:06.208Z,74.77
2023-11-27T05:49:32.756Z,75.15
2023-11-27T05:51:59.381Z,77.26
2023-11-27T05:54:25.721Z,74.48
2023-11-27T05:56:51.869Z,75.20
2023-11-27T05:59:18.007Z,75.52
2023-11-27T06:01:44.292Z,75.72
2023-11-27T06:04:10.633Z,73.23
2023-11-27T06:06:36.908Z,72.99
2023-11-27T06:09:03.106Z,75.62
2023-11-27T06:11:29.256Z,73.97
2023-11-27T06:13:55.427Z,75.25
2023-11-27T06:16:21.729Z,74.38
2023-11-27T06:18:48.209Z,74.94
2023-11-27T06:21:14.670Z,74.30
2023-11-27T06:23:41.097Z,74.29
2023-11-27T06:26:07.431Z,75.84
2023-11-27T06:28:33.674Z,74.88
2023-11-27T06:30:59.895Z,73.33
2023-11-27T06:33:26.168Z,74.24
2023-11-27T06:35:52.577Z,74.35
2023-11-27T06:38:18.781Z,73.86
2023-11-27T06:40:47.870Z,74.54
2023-11-27T06:43:14.796Z,74.04
2023-11-27T06:45:41.049Z,74.08
2023-11-27T06:48:07.337Z,74.64
2023-11-27T06:50:33.528Z,75.88
2023-11-27T06:52:59.713Z,75.46
2023-11-27T06:55:25.940Z,75.66
2023-11-27T06:57:52.199Z,74.64
2023-11-27T07:00:19.476Z,75.77
2023-11-27T07:02:45.730Z,75.65
2023-11-27T07:05:11.966Z,75.74
2023-11-27T07:07:38.117Z,76.30
2023-11-27T07:10:04.534Z,75.51
2023-11-27T07:12:30.683Z,75.98
2023-11-27T07:14:56.841Z,75.58
2023-11-27T07:17:23.064Z,75.89
2023-11-27T07:19:49.317Z,76.50
2023-11-27T07:22:15.528Z,77.00
2023-11-27T07:24:41.792Z,75.92
2023-11-27T07:27:08.049Z,77.01
2023-11-27T07:29:34.332Z,76.63
2023-11-27T07:32:00.850Z,77.03
2023-11-27T07:34:27.085Z,77.81
2023-11-27T07:36:53.416Z,77.40
2023-11-27T07:39:19.794Z,77.88
2023-11-27T07:41:45.952Z,77.21
2023-11-27T07:44:12.150Z,76.45
2023-11-27T07:46:39.593Z,75.62
2023-11-27T07:49:05.902Z,76.46
2023-11-27T07:51:32.338Z,77.11
2023-11-27T07:53:58.521Z,76.66
2023-11-27T07:56:24.691Z,77.18
2023-11-27T07:58:50.880Z,76.85
2023-11-27T08:01:17.124Z,76.89
2023-11-27T08:03:43.392Z,77.36
2023-11-27T08:06:09.880Z,76.23
2023-11-27T08:08:39.251Z,76.99
2023-11-27T08:11:05.661Z,77.12
2023-11-27T08:13:32.200Z,77.36
2023-11-27T08:15:58.426Z,77.38
2023-11-27T08:18:24.630Z,76.90
2023-11-27T08:20:50.785Z,78.29
2023-11-27T08:23:17.020Z,76.77
2023-11-27T08:25:43.356Z,76.95
2023-11-27T08:28:09.696Z,77.58
2023-11-27T08:30:36.024Z,77.87
2023-11-27T08:33:02.344Z,76.94
2023-11-27T08:35:28.640Z,77.61
2023-11-27T08:37:54.872Z,77.97
2023-11-27T08:40:21.214Z,77.08
2023-11-27T08:42:47.488Z,78.51
2023-11-27T08:45:13.682Z,77.13
2023-11-27T08:47:39.889Z,77.70
2023-11-27T08:50:06.147Z,77.91
2023-11-27T08:52:32.336Z,79.24
2023-11-27T08:54:58.578Z,78.43
2023-11-27T08:57:24.739Z,77.20
2023-11-27T08:59:50.911Z,77.24
2023-11-27T09:02:17.172Z,77.11
2023-11-27T09:04:44.988Z,77.75
2023-11-27T09:07:11.369Z,76.87
2023-11-27T09:09:37.809Z,77.31
2023-11-27T09:12:03.984Z,76.96
2023-11-27T09:14:30.203Z,77.61
2023-11-27T09:16:58.003Z,77.14
2023-11-27T09:19:25.496Z,78.10
2023-11-27T09:21:51.795Z,77.95
2023-11-27T09:24:19.304Z,77.94
2023-11-27T09:26:45.497Z,76.60
2023-11-27T09:29:11.688Z,78.02
2023-11-27T09:31:40.149Z,77.42
2023-11-27T09:34:06.479Z,78.66
2023-11-27T09:36:32.739Z,78.51
2023-11-27T09:38:58.992Z,77.59
2023-11-27T09:41:25.159Z,77.93
2023-11-27T09:43:51.522Z,77.91
2023-11-27T09:46:17.865Z,77.73
2023-11-27T09:48:44.175Z,78.08
2023-11-27T09:51:10.653Z,77.66
2023-11-27T09:53:38.990Z,77.22
2023-11-27T09:56:05.267Z,77.94
2023-11-27T09:58:31.748Z,78.56
2023-11-27T10:00:58.039Z,79.18
2023-11-27T10:03:24.348Z,78.32
2023-11-27T10:05:50.565Z,78.22
2023-11-27T10:08:16.747Z,78.08
2023-11-27T10:10:43.031Z,77.26
2023-11-27T10:13:12.303Z,77.74
2023-11-27T10:15:44.176Z,78.36
2023-11-27T10:26:35.806Z,78.51
2023-11-27T10:29:01.945Z,78.63
2023-11-27T10:31:28.212Z,77.02
2023-11-27T10:33:54.417Z,77.37
2023-11-27T10:36:20.650Z,77.38
2023-11-27T10:38:46.899Z,78.80
2023-11-27T10:41:13.074Z,77.85
2023-11-27T10:43:39.479Z,78.78
2023-11-27T10:46:05.822Z,77.34
2023-11-27T10:48:41.261Z,78.18
2023-11-27T10:51:10.512Z,79.03
2023-11-27T10:53:36.665Z,78.63
2023-11-27T10:56:02.928Z,77.86
2023-11-27T10:58:29.272Z,78.09
2023-11-27T11:00:55.454Z,77.96
2023-11-27T11:03:21.603Z,78.64
2023-11-27T11:05:47.758Z,78.31
2023-11-27T11:08:14.008Z,79.14
2023-11-27T11:10:40.331Z,78.93
2023-11-27T11:13:06.521Z,78.53
2023-11-27T11:15:32.685Z,78.48
2023-11-27T11:17:58.913Z,78.14
2023-11-27T11:20:25.110Z,78.51
2023-11-27T11:22:51.460Z,78.14
2023-11-27T11:25:17.944Z,78.79
2023-11-27T11:27:44.175Z,77.87
2023-11-27T11:30:10.364Z,78.06
2023-11-27T11:32:36.535Z,78.55
2023-11-27T11:35:02.700Z,78.24
2023-11-27T11:37:28.923Z,78.43
2023-11-27T11:39:55.678Z,78.80
2023-11-27T11:42:22.060Z,78.94
2023-11-27T11:44:48.494Z,77.45
2023-11-27T11:47:14.873Z,77.30
2023-11-27T11:49:41.135Z,77.67
2023-11-27T11:52:07.595Z,76.67
2023-11-27T11:54:33.827Z,76.95
2023-11-27T11:56:59.997Z,77.62
2023-11-27T11:59:26.208Z,77.50
2023-11-27T12:01:52.485Z,77.10
2023-11-27T12:04:18.784Z,78.25
2023-11-27T12:06:45.021Z,77.21
2023-11-27T12:09:11.223Z,77.75
2023-11-27T12:11:40.609Z,77.72
2023-11-27T12:14:07.343Z,78.09
2023-11-27T12:16:35.621Z,78.32
2023-11-27T12:19:01.847Z,78.47
2023-11-27T12:21:28.005Z,78.50
2023-11-27T12:23:54.738Z,78.68
2023-11-27T12:26:21.184Z,77.81
2023-11-27T12:28:47.338Z,78.59
2023-11-27T12:31:13.813Z,77.73
2023-11-27T12:33:40.244Z,77.54
2023-11-27T12:36:06.488Z,77.63
2023-11-27T12:38:32.691Z,77.48
2023-11-27T12:40:59.065Z,78.24
2023-11-27T12:43:25.370Z,77.57
2023-11-27T12:45:51.641Z,77.29
2023-11-27T12:48:17.868Z,77.40
2023-11-27T12:50:44.140Z,78.03
2023-11-27T12:53:13.300Z,77.38
2023-11-27T12:55:40.004Z,78.14
2023-11-27T12:58:06.317Z,77.88
2023-11-27T13:00:32.567Z,77.51
2023-11-27T13:02:58.782Z,78.38
2023-11-27T13:05:25.060Z,77.93
2023-11-27T13:07:51.244Z,77.80
2023-11-27T13:10:17.504Z,77.40
2023-11-27T13:12:43.702Z,77.44
2023-11-27T13:15:09.985Z,77.57
2023-11-27T13:17:36.233Z,77.61
2023-11-27T13:20:02.680Z,77.02
2023-11-27T13:22:28.901Z,78.33
2023-11-27T13:24:55.218Z,77.89
2023-11-27T13:27:21.393Z,77.39
2023-11-27T13:29:47.559Z,77.81
2023-11-27T13:32:13.839Z,76.94
2023-11-27T13:34:40.124Z,78.49
2023-11-27T13:37:06.366Z,78.56
2023-11-27T13:39:32.626Z,79.07
2023-11-27T13:41:58.808Z,78.33
2023-11-27T13:44:25.008Z,78.74
2023-11-27T13:46:51.156Z,79.41
2023-11-27T13:49:17.366Z,78.42
2023-11-27T13:51:43.538Z,78.51
2023-11-27T13:54:09.792Z,78.40
2023-11-27T13:56:35.995Z,78.25
2023-11-27T13:59:02.143Z,79.19
2023-11-27T14:01:28.429Z,78.99
2023-11-27T14:03:54.716Z,78.25
2023-11-27T14:06:20.934Z,78.89
2023-11-27T14:08:47.162Z,77.83
2023-11-27T14:11:21.569Z,78.30
2023-11-27T14:13:56.654Z,76.54
2023-11-27T14:16:22.904Z,77.97
2023-11-27T14:18:49.120Z,78.07
2023-11-27T14:21:15.525Z,78.50
2023-11-27T14:23:41.810Z,78.66
2023-11-27T14:26:07.983Z,78.44
2023-11-27T14:28:34.231Z,78.10
2023-11-27T14:31:00.489Z,79.02
2023-11-27T14:33:26.657Z,77.81
2023-11-27T14:35:52.826Z,78.19
2023-11-27T14:38:19.255Z,78.18
2023-11-27T14:40:45.457Z,78.47
2023-11-27T14:43:11.623Z,78.06
2023-11-27T14:45:37.810Z,78.69
2023-11-27T14:48:04.118Z,78.25
2023-11-27T14:50:30.334Z,78.47
2023-11-27T14:52:56.581Z,78.18
2023-11-27T14:55:24.783Z,78.04
2023-11-27T14:57:51.018Z,79.23
2023-11-27T15:00:17.369Z,79.53
2023-11-27T15:02:44.435Z,78.47
2023-11-27T15:05:11.254Z,78.81
2023-11-27T15:07:37.755Z,78.79
2023-11-27T15:10:04.193Z,78.18
2023-11-27T15:12:30.383Z,77.62
2023-11-27T15:14:56.550Z,77.83
2023-11-27T15:17:23.017Z,78.11
2023-11-27T15:19:49.424Z,79.27
2023-11-27T15:22:15.694Z,79.17
2023-11-27T15:24:41.965Z,78.94
2023-11-27T15:27:08.131Z,78.88
2023-11-27T15:29:34.385Z,79.72
2023-11-27T15:32:00.703Z,79.00
2023-11-27T15:34:29.120Z,78.07
2023-11-27T15:36:56.068Z,78.60
2023-11-27T15:39:22.311Z,79.02
2023-11-27T15:41:48.468Z,78.25
2023-11-27T15:44:14.649Z,79.41
2023-11-27T15:46:40.858Z,79.40
2023-11-27T15:49:07.103Z,79.06
2023-11-27T15:51:33.667Z,78.79
2023-11-27T15:53:59.955Z,79.07
2023-11-27T15:56:26.112Z,78.80
2023-11-27T15:58:52.302Z,78.78
2023-11-27T16:01:18.684Z,78.58
2023-11-27T16:03:45.030Z,79.02
2023-11-27T16:06:11.206Z,78.88
2023-11-27T16:08:37.582Z,78.97
2023-11-27T16:11:03.952Z,78.24
2023-11-27T16:13:30.143Z,78.96
2023-11-27T16:15:56.726Z,79.51
2023-11-27T16:18:23.046Z,79.38
2023-11-27T16:20:49.335Z,78.92
2023-11-27T16:23:15.543Z,78.68
2023-11-27T16:25:41.737Z,79.73
2023-11-27T16:28:08.018Z,78.88
2023-11-27T16:30:34.479Z,79.21
2023-11-27T16:33:00.968Z,80.05
2023-11-27T16:35:27.137Z,79.75
2023-11-27T16:37:53.447Z,79.08
2023-11-27T16:40:19.771Z,78.79
2023-11-27T16:42:45.941Z,78.18
2023-11-27T16:45:12.182Z,78.56
2023-11-27T16:47:38.490Z,77.96
2023-11-27T16:50:04.796Z,78.25
2023-11-27T16:52:31.009Z,77.84
2023-11-27T16:54:57.297Z,78.28
2023-11-27T16:57:23.479Z,78.98
2023-11-27T16:59:49.633Z,77.80
2023-11-27T17:02:15.904Z,78.33
2023-11-27T17:04:42.249Z,77.90
2023-11-27T17:07:08.475Z,79.04
2023-11-27T17:09:34.776Z,77.66
2023-11-27T17:12:01.044Z,79.04
2023-11-27T17:14:27.242Z,79.49
2023-11-27T17:16:53.502Z,79.58
2023-11-27T17:19:19.728Z,80.00
2023-11-27T17:21:46.018Z,81.06
2023-11-27T17:24:12.193Z,81.48
2023-11-27T17:26:38.344Z,78.19
2023-11-27T17:29:04.484Z,78.95
2023-11-27T17:31:30.708Z,79.13
2023-11-27T17:33:56.915Z,76.72
2023-11-27T17:36:23.051Z,75.46
2023-11-27T17:38:49.265Z,78.56
2023-11-27T17:41:17.688Z,76.17
2023-11-27T17:43:44.597Z,76.30
2023-11-27T17:46:10.963Z,76.45
2023-11-27T17:48:37.197Z,77.50
2023-11-27T17:51:03.373Z,76.20
2023-11-27T17:53:29.681Z,81.22
2023-11-27T17:55:58.039Z,80.34
2023-11-27T17:58:24.577Z,81.07
2023-11-27T18:00:50.777Z,80.57
2023-11-27T18:03:17.003Z,79.64
2023-11-27T18:05:43.236Z,78.91
2023-11-27T18:08:09.643Z,74.72
2023-11-27T18:10:35.897Z,74.47
2023-11-27T18:13:02.260Z,75.35
2023-11-27T18:15:28.619Z,75.67
2023-11-27T18:17:54.788Z,77.00
2023-11-27T18:20:20.982Z,79.00
2023-11-27T18:22:47.197Z,74.81
2023-11-27T18:25:13.581Z,75.50
2023-11-27T18:27:39.769Z,74.72
2023-11-27T18:30:05.916Z,74.86
2023-11-27T18:32:32.194Z,75.06
2023-11-27T18:34:58.409Z,75.25
2023-11-27T18:37:24.592Z,77.41
2023-11-27T18:39:50.932Z,78.92
2023-11-27T18:42:17.146Z,78.67
2023-11-27T18:44:43.304Z,76.07
2023-11-27T18:47:09.573Z,76.70
2023-11-27T18:49:36.102Z,75.69
2023-11-27T18:52:02.411Z,75.74
2023-11-27T18:54:28.633Z,76.71
2023-11-27T18:56:54.788Z,76.70
2023-11-27T18:59:20.966Z,75.82
2023-11-27T19:01:47.302Z,75.98
2023-11-27T19:04:13.616Z,77.92
2023-11-27T19:06:39.847Z,76.58
2023-11-27T19:09:06.105Z,76.63
2023-11-27T19:11:32.466Z,76.80
2023-11-27T19:13:58.609Z,78.31
2023-11-27T19:16:24.875Z,77.13
2023-11-27T19:18:51.134Z,76.88
2023-11-27T19:21:17.264Z,77.82
2023-11-27T19:23:43.517Z,78.35
2023-11-27T19:26:09.680Z,76.17
2023-11-27T19:28:35.898Z,75.70
2023-11-27T19:31:04.084Z,77.20
2023-11-27T19:33:30.249Z,76.15
2023-11-27T19:35:56.413Z,77.77
2023-11-27T19:38:22.663Z,76.84
2023-11-27T19:40:49.101Z,76.13
2023-11-27T19:43:15.413Z,77.14
2023-11-27T19:45:41.599Z,77.44
2023-11-27T19:48:08.053Z,76.39
2023-11-27T19:50:34.347Z,76.95
2023-11-27T19:53:00.519Z,76.86
2023-11-27T19:55:26.835Z,76.40
2023-11-27T19:57:53.065Z,76.90
2023-11-27T20:00:19.212Z,76.54
2023-11-27T20:02:45.423Z,77.08
2023-11-27T20:05:11.699Z,77.52
2023-11-27T20:07:38.012Z,76.48
2023-11-27T20:10:04.313Z,77.33
2023-11-27T20:12:30.469Z,75.50
2023-11-27T20:14:56.859Z,76.63
2023-11-27T20:17:23.169Z,76.38
2023-11-27T20:19:49.376Z,76.58
2023-11-27T20:22:15.605Z,76.28
2023-11-27T20:24:41.847Z,76.80
2023-11-27T20:27:08.048Z,77.08
2023-11-27T20:29:34.280Z,76.75
2023-11-27T20:32:00.612Z,76.60
2023-11-27T20:34:26.902Z,77.22
2023-11-27T20:36:53.102Z,78.38
2023-11-27T20:39:19.357Z,77.37
2023-11-27T20:41:45.575Z,77.99
2023-11-27T20:44:12.024Z,78.34
2023-11-27T20:46:38.584Z,78.57
2023-11-27T20:49:04.761Z,79.98
2023-11-27T20:51:30.939Z,79.89
2023-11-27T20:53:57.350Z,79.48
2023-11-27T20:56:23.507Z,80.30
2023-11-27T20:58:49.805Z,78.62
2023-11-27T21:01:16.220Z,79.88
2023-11-27T21:03:42.544Z,78.99
2023-11-27T21:06:08.726Z,79.27
2023-11-27T21:08:34.891Z,79.09
2023-11-27T21:11:01.159Z,80.05
2023-11-27T21:13:28.700Z,80.12
2023-11-27T21:15:54.936Z,80.48
2023-11-27T21:18:21.130Z,80.45
2023-11-27T21:20:47.569Z,79.69
2023-11-27T21:23:13.711Z,80.34
2023-11-27T21:25:39.878Z,82.08
2023-11-27T21:28:06.057Z,80.72
2023-11-27T21:30:32.229Z,80.54
2023-11-27T21:32:58.674Z,81.65
2023-11-27T21:35:24.854Z,81.57
2023-11-27T21:37:51.201Z,78.96
2023-11-27T21:40:17.502Z,78.29
2023-11-27T21:42:43.744Z,78.32
2023-11-27T21:45:10.004Z,77.53
2023-11-27T21:47:36.323Z,77.79
2023-11-27T21:50:02.769Z,80.27
2023-11-27T21:52:29.286Z,78.46
2023-11-27T21:54:55.641Z,78.81
2023-11-27T21:57:21.855Z,78.43
2023-11-27T21:59:48.270Z,78.02
2023-11-27T22:02:15.216Z,77.86
2023-11-27T22:04:41.723Z,78.53
2023-11-27T22:07:07.912Z,76.98
2023-11-27T22:09:34.093Z,78.23
2023-11-27T22:12:00.336Z,79.36
2023-11-27T22:14:26.562Z,79.21
2023-11-27T22:16:52.812Z,78.61
2023-11-27T22:19:19.010Z,79.23
2023-11-27T22:21:45.261Z,77.80
2023-11-27T22:24:11.490Z,77.41
2023-11-27T22:26:37.651Z,77.63
2023-11-27T22:29:03.800Z,78.30
2023-11-27T22:31:30.002Z,79.10
2023-11-27T22:33:56.185Z,79.79
2023-11-27T22:36:22.344Z,80.56
2023-11-27T22:38:48.534Z,81.33
2023-11-27T22:41:14.688Z,81.10
2023-11-27T22:43:40.858Z,81.71
2023-11-27T22:46:07.053Z,81.76
2023-11-27T22:48:33.402Z,80.58
2023-11-27T22:50:59.609Z,80.45
2023-11-27T22:53:25.771Z,80.82
2023-11-27T22:55:52.096Z,80.77
2023-11-27T22:58:18.291Z,80.28
2023-11-27T23:00:44.481Z,80.45
2023-11-27T23:03:10.877Z,80.49
2023-11-27T23:05:37.187Z,81.60
2023-11-27T23:08:03.341Z,81.59
2023-11-27T23:10:29.535Z,81.34
2023-11-27T23:12:55.704Z,81.90
2023-11-27T23:15:21.846Z,82.41
2023-11-27T23:17:48.105Z,82.29
2023-11-27T23:20:14.327Z,81.76
2023-11-27T23:22:40.779Z,81.89
2023-11-27T23:25:06.995Z,82.77
2023-11-27T23:27:33.225Z,82.35
2023-11-27T23:29:59.364Z,82.82
2023-11-27T23:32:25.590Z,83.74
2023-11-27T23:34:51.785Z,82.99
2023-11-27T23:37:17.992Z,83.24
2023-11-27T23:39:44.293Z,83.83
2023-11-27T23:42:10.486Z,83.38
2023-11-27T23:44:36.639Z,82.86
2023-11-27T23:47:02.925Z,83.12
2023-11-27T23:49:29.233Z,82.51
2023-11-27T23:51:55.403Z,82.45
2023-11-27T23:54:21.657Z,82.83
2023-11-27T23:56:47.809Z,82.83
2023-11-27T23:59:13.969Z,82.65
